createdAt,value
2019-03-26T00:02:07.108Z,8.20
2019-03-26T00:04:35.088Z,8.20
2019-03-26T00:07:03.049Z,8.20
2019-03-26T00:09:31.064Z,8.20
2019-03-26T00:11:58.939Z,8.10
2019-03-26T00:14:26.934Z,8.20
2019-03-26T00:16:54.941Z,8.10
2019-03-26T00:19:22.935Z,8.10
2019-03-26T00:21:50.889Z,8.10
2019-03-26T00:24:18.939Z,8.10
2019-03-26T00:26:46.914Z,8.10
2019-03-26T00:29:14.900Z,8.20
2019-03-26T00:31:42.900Z,8.20
2019-03-26T00:34:19.156Z,8.20
2019-03-26T00:36:40.742Z,8.20
2019-03-26T00:39:08.764Z,8.20
2019-03-26T00:41:36.704Z,8.20
2019-03-26T00:44:04.706Z,8.20
2019-03-26T00:46:32.790Z,8.10
2019-03-26T00:49:00.676Z,8.10
2019-03-26T00:51:28.661Z,8.20
2019-03-26T00:53:56.641Z,8.20
2019-03-26T00:56:24.718Z,8.10
2019-03-26T00:58:52.805Z,8.10
2019-03-26T01:01:20.786Z,8.10
2019-03-26T01:03:48.906Z,8.10
2019-03-26T01:06:16.885Z,8.10
2019-03-26T01:08:44.965Z,8.10
2019-03-26T01:11:12.907Z,8.10
2019-03-26T01:13:40.879Z,8.10
2019-03-26T01:16:08.851Z,8.10
2019-03-26T01:18:36.854Z,8.10
2019-03-26T01:21:04.821Z,8.10
2019-03-26T01:23:32.791Z,8.10
2019-03-26T01:26:00.790Z,8.10
2019-03-26T01:28:28.776Z,8.10
2019-03-26T01:30:56.785Z,8.10
2019-03-26T01:33:24.765Z,8.10
2019-03-26T01:35:52.851Z,8.10
2019-03-26T01:38:20.851Z,8.10
2019-03-26T01:40:48.823Z,8.10
2019-03-26T01:43:16.788Z,8.10
2019-03-26T01:45:44.771Z,8.10
2019-03-26T01:48:12.752Z,8.10
2019-03-26T01:50:40.746Z,8.10
2019-03-26T01:53:08.919Z,8.10
2019-03-26T01:55:36.875Z,8.00
2019-03-26T01:58:04.962Z,8.10
2019-03-26T02:00:33.033Z,8.00
2019-03-26T02:03:01.003Z,8.00
2019-03-26T02:05:28.996Z,8.10
2019-03-26T02:07:56.967Z,8.10
2019-03-26T02:10:24.985Z,8.10
2019-03-26T02:12:52.956Z,8.00
2019-03-26T02:15:31.737Z,8.00
2019-03-26T02:18:00.351Z,8.00
2019-03-26T02:20:28.366Z,8.00
2019-03-26T02:22:56.475Z,8.00
2019-03-26T02:25:24.466Z,8.00
2019-03-26T02:27:52.436Z,7.90
2019-03-26T02:30:20.501Z,7.90
2019-03-26T02:32:48.537Z,7.90
2019-03-26T02:35:18.875Z,7.80
2019-03-26T02:37:46.314Z,7.80
2019-03-26T02:40:14.391Z,7.80
2019-03-26T02:42:42.373Z,7.90
2019-03-26T02:45:10.464Z,7.80
2019-03-26T02:47:38.430Z,7.80
2019-03-26T02:50:06.637Z,7.80
2019-03-26T02:52:34.593Z,7.80
2019-03-26T02:55:03.023Z,7.80
2019-03-26T02:57:31.115Z,7.80
2019-03-26T02:59:59.116Z,7.80
2019-03-26T03:02:27.187Z,7.80
2019-03-26T03:04:55.264Z,7.80
2019-03-26T03:07:24.066Z,7.80
2019-03-26T03:09:52.138Z,7.80
2019-03-26T03:12:20.219Z,7.80
2019-03-26T03:14:48.297Z,7.80
2019-03-26T03:17:16.373Z,7.80
2019-03-26T03:19:44.347Z,7.80
2019-03-26T03:22:12.353Z,7.80
2019-03-26T03:24:40.315Z,7.80
2019-03-26T03:27:08.305Z,7.80
2019-03-26T03:29:36.293Z,7.80
2019-03-26T03:32:04.519Z,7.80
2019-03-26T03:34:32.509Z,7.70
2019-03-26T03:37:00.513Z,7.80
2019-03-26T03:39:28.594Z,7.80
2019-03-26T03:41:56.617Z,7.80
2019-03-26T03:44:24.588Z,7.80
2019-03-26T03:46:54.071Z,7.80
2019-03-26T03:49:24.366Z,7.70
2019-03-26T03:51:54.459Z,7.70
2019-03-26T03:54:22.566Z,7.70
2019-03-26T03:56:52.642Z,7.60
2019-03-26T03:59:21.817Z,7.60
2019-03-26T04:01:49.827Z,7.60
2019-03-26T04:04:17.913Z,7.60
2019-03-26T04:06:45.984Z,7.60
2019-03-26T04:09:13.961Z,7.50
2019-03-26T04:11:41.951Z,7.40
2019-03-26T04:14:09.966Z,7.20
2019-03-26T04:16:38.033Z,7.10
2019-03-26T04:19:06.097Z,7.00
2019-03-26T04:21:34.089Z,6.80
2019-03-26T04:24:02.225Z,6.80
2019-03-26T04:26:30.108Z,6.60
2019-03-26T04:28:58.217Z,6.50
2019-03-26T04:31:26.230Z,6.40
2019-03-26T04:33:54.196Z,6.30
2019-03-26T04:36:25.842Z,6.10
2019-03-26T04:38:51.884Z,6.00
2019-03-26T04:41:19.949Z,5.90
2019-03-26T04:43:47.996Z,5.80
2019-03-26T04:46:16.004Z,5.70
2019-03-26T04:48:44.145Z,5.60
2019-03-26T04:51:12.113Z,5.50
2019-03-26T04:53:40.083Z,5.50
2019-03-26T04:56:08.039Z,5.40
2019-03-26T04:58:36.016Z,5.30
2019-03-26T05:01:03.986Z,5.30
2019-03-26T05:03:32.012Z,5.30
2019-03-26T05:06:00.077Z,5.30
2019-03-26T05:08:28.160Z,5.30
2019-03-26T05:10:56.284Z,5.30
2019-03-26T05:13:24.279Z,5.30
2019-03-26T05:15:52.264Z,5.30
2019-03-26T05:18:20.219Z,5.30
2019-03-26T05:20:48.206Z,5.40
2019-03-26T05:23:16.188Z,5.40
2019-03-26T05:25:44.190Z,5.50
2019-03-26T05:28:12.144Z,5.50
2019-03-26T05:30:40.132Z,5.60
2019-03-26T05:33:08.119Z,5.60
2019-03-26T05:35:36.098Z,5.60
2019-03-26T05:38:04.089Z,5.70
2019-03-26T05:40:31.969Z,5.70
2019-03-26T05:43:00.046Z,5.80
2019-03-26T05:45:27.903Z,5.90
2019-03-26T05:47:55.879Z,5.90
2019-03-26T05:50:23.846Z,6.00
2019-03-26T05:52:51.830Z,6.10
2019-03-26T05:55:19.857Z,6.10
2019-03-26T05:57:47.852Z,6.20
2019-03-26T06:00:22.727Z,6.20
2019-03-26T06:02:50.688Z,6.30
2019-03-26T06:05:18.816Z,6.40
2019-03-26T06:07:46.804Z,6.40
2019-03-26T06:10:15.076Z,6.60
2019-03-26T06:12:43.078Z,6.60
2019-03-26T06:15:11.290Z,6.70
2019-03-26T06:17:39.172Z,6.70
2019-03-26T06:20:09.873Z,6.80
2019-03-26T06:22:37.894Z,6.80
2019-03-26T06:25:06.550Z,6.80
2019-03-26T06:27:34.720Z,6.90
2019-03-26T06:30:02.824Z,6.90
2019-03-26T06:32:30.791Z,6.90
2019-03-26T06:34:58.766Z,6.90
2019-03-26T06:37:26.749Z,6.90
2019-03-26T06:39:54.777Z,7.00
2019-03-26T06:42:22.741Z,7.00
2019-03-26T06:44:50.749Z,7.10
2019-03-26T06:47:18.828Z,7.10
2019-03-26T06:49:46.825Z,7.10
2019-03-26T06:52:14.879Z,7.10
2019-03-26T06:54:42.836Z,7.20
2019-03-26T06:57:10.824Z,7.20
2019-03-26T06:59:38.897Z,7.20
2019-03-26T07:02:06.872Z,7.20
2019-03-26T07:04:34.897Z,7.20
2019-03-26T07:07:02.878Z,7.30
2019-03-26T07:09:30.843Z,7.40
2019-03-26T07:11:58.829Z,7.40
2019-03-26T07:14:26.803Z,7.40
2019-03-26T07:16:54.797Z,7.50
2019-03-26T07:19:22.781Z,7.50
2019-03-26T07:21:50.788Z,7.50
2019-03-26T07:24:18.763Z,7.60
2019-03-26T07:26:46.838Z,7.60
2019-03-26T07:29:14.920Z,7.70
2019-03-26T07:31:42.920Z,7.80
2019-03-26T07:34:10.904Z,7.80
2019-03-26T07:36:38.873Z,7.90
2019-03-26T07:39:06.977Z,7.90
2019-03-26T07:41:34.964Z,8.00
2019-03-26T07:44:03.135Z,8.00
2019-03-26T07:46:31.119Z,8.10
2019-03-26T07:48:59.089Z,8.20
2019-03-26T07:51:27.056Z,8.20
2019-03-26T07:53:55.067Z,8.30
2019-03-26T07:56:23.194Z,8.40
2019-03-26T07:58:51.405Z,8.50
2019-03-26T08:01:19.454Z,8.50
2019-03-26T08:03:47.603Z,8.50
2019-03-26T08:06:15.556Z,8.50
2019-03-26T08:08:43.531Z,8.50
2019-03-26T08:11:11.668Z,8.50
2019-03-26T08:13:41.025Z,8.60
2019-03-26T08:16:09.336Z,8.80
2019-03-26T08:18:37.278Z,9.00
2019-03-26T08:21:05.320Z,9.30
2019-03-26T08:23:33.264Z,9.50
2019-03-26T08:26:01.256Z,9.80
2019-03-26T08:28:29.361Z,10.00
2019-03-26T08:30:57.372Z,10.10
2019-03-26T08:33:25.433Z,10.30
2019-03-26T08:35:53.424Z,10.30
2019-03-26T08:38:21.405Z,10.20
2019-03-26T08:40:50.538Z,10.10
2019-03-26T08:43:18.488Z,9.90
2019-03-26T08:45:46.612Z,9.80
2019-03-26T08:48:14.699Z,9.70
2019-03-26T08:50:42.675Z,9.60
2019-03-26T08:53:10.680Z,9.60
2019-03-26T08:55:38.662Z,9.60
2019-03-26T08:58:06.767Z,9.60
2019-03-26T09:00:34.856Z,9.60
2019-03-26T09:03:02.928Z,9.50
2019-03-26T09:05:30.902Z,9.50
2019-03-26T09:07:58.901Z,9.40
2019-03-26T09:10:26.876Z,9.40
2019-03-26T09:12:54.874Z,9.40
2019-03-26T09:15:22.869Z,9.40
2019-03-26T09:17:50.845Z,9.30
2019-03-26T09:20:19.020Z,9.30
2019-03-26T09:22:46.989Z,9.20
2019-03-26T09:25:14.932Z,9.30
2019-03-26T09:27:43.032Z,9.40
2019-03-26T09:30:11.535Z,9.40
2019-03-26T09:32:39.515Z,9.50
2019-03-26T09:35:08.611Z,9.60
2019-03-26T09:37:36.576Z,9.70
2019-03-26T09:40:05.725Z,9.80
2019-03-26T09:42:33.716Z,9.90
2019-03-26T09:45:01.688Z,10.10
2019-03-26T09:47:30.274Z,10.20
2019-03-26T09:49:58.281Z,10.40
2019-03-26T09:52:26.372Z,10.40
2019-03-26T09:54:54.575Z,10.50
2019-03-26T09:57:22.536Z,10.60
2019-03-26T09:59:50.569Z,10.70
2019-03-26T10:02:18.726Z,10.80
2019-03-26T10:04:46.708Z,10.80
2019-03-26T10:07:21.255Z,10.80
2019-03-26T10:09:44.574Z,10.90
2019-03-26T10:12:12.560Z,11.00
2019-03-26T10:14:40.659Z,11.20
2019-03-26T10:17:08.895Z,11.40
2019-03-26T10:19:36.984Z,11.60
2019-03-26T10:22:04.953Z,11.70
2019-03-26T10:24:33.044Z,11.80
2019-03-26T10:27:01.037Z,11.80
2019-03-26T10:29:30.585Z,11.80
2019-03-26T10:31:58.822Z,11.70
2019-03-26T10:34:26.794Z,11.70
2019-03-26T10:36:54.889Z,11.60
2019-03-26T10:39:22.873Z,11.50
2019-03-26T10:41:50.836Z,11.40
2019-03-26T10:44:18.944Z,11.30
2019-03-26T10:46:46.960Z,11.20
2019-03-26T10:49:14.928Z,11.20
2019-03-26T10:51:42.903Z,11.10
2019-03-26T10:54:10.894Z,11.20
2019-03-26T10:56:38.877Z,11.30
2019-03-26T10:59:06.973Z,11.50
2019-03-26T11:01:34.966Z,11.60
2019-03-26T11:04:02.841Z,11.90
2019-03-26T11:06:30.709Z,11.90
2019-03-26T11:08:58.696Z,12.00
2019-03-26T11:11:26.665Z,12.00
2019-03-26T11:13:54.920Z,12.00
2019-03-26T11:16:22.911Z,11.90
2019-03-26T11:18:50.886Z,11.80
2019-03-26T11:21:18.936Z,11.80
2019-03-26T11:23:46.913Z,11.90
2019-03-26T11:26:15.023Z,11.90
2019-03-26T11:28:43.117Z,11.90
2019-03-26T11:31:11.291Z,11.80
2019-03-26T11:33:39.260Z,11.70
2019-03-26T11:36:07.343Z,11.70
2019-03-26T11:38:35.310Z,11.60
2019-03-26T11:41:03.364Z,11.70
2019-03-26T11:43:31.344Z,11.80
2019-03-26T11:45:59.408Z,11.90
2019-03-26T11:48:27.483Z,11.90
2019-03-26T11:50:55.461Z,12.00
2019-03-26T11:53:24.160Z,12.00
2019-03-26T11:55:52.134Z,12.00
2019-03-26T11:58:29.820Z,11.90
2019-03-26T12:00:49.894Z,11.80
2019-03-26T12:03:18.108Z,11.80
2019-03-26T12:05:46.201Z,11.70
2019-03-26T12:08:14.284Z,11.70
2019-03-26T12:10:42.272Z,11.50
2019-03-26T12:13:10.253Z,11.50
2019-03-26T12:15:38.264Z,11.50
2019-03-26T12:18:06.243Z,11.60
2019-03-26T12:20:34.240Z,11.60
2019-03-26T12:23:02.310Z,11.50
2019-03-26T12:25:30.301Z,11.50
2019-03-26T12:27:58.330Z,11.50
2019-03-26T12:30:37.006Z,11.60
2019-03-26T12:33:06.629Z,11.60
2019-03-26T12:35:34.827Z,11.60
2019-03-26T12:38:16.622Z,11.70
2019-03-26T12:40:44.621Z,11.80
2019-03-26T12:43:12.901Z,11.80
2019-03-26T12:45:40.892Z,11.80
2019-03-26T12:48:08.897Z,11.80
2019-03-26T12:50:36.985Z,11.70
2019-03-26T12:53:05.060Z,11.80
2019-03-26T12:55:33.060Z,11.70
2019-03-26T12:58:01.040Z,11.80
2019-03-26T13:00:32.380Z,11.80
2019-03-26T13:03:00.681Z,11.70
2019-03-26T13:05:28.776Z,11.70
2019-03-26T13:07:56.748Z,11.60
2019-03-26T13:10:24.748Z,11.50
2019-03-26T13:12:52.720Z,11.50
2019-03-26T13:15:20.728Z,11.40
2019-03-26T13:17:48.684Z,11.30
2019-03-26T13:20:16.757Z,11.40
2019-03-26T13:22:44.672Z,11.40
2019-03-26T13:25:12.638Z,11.50
2019-03-26T13:27:40.641Z,11.50
2019-03-26T13:30:08.992Z,11.50
2019-03-26T13:32:36.873Z,11.50
2019-03-26T13:35:05.496Z,11.50
2019-03-26T13:37:33.469Z,11.40
2019-03-26T13:40:01.446Z,11.50
2019-03-26T13:42:29.349Z,11.60
2019-03-26T13:44:57.412Z,11.60
2019-03-26T13:47:25.496Z,11.60
2019-03-26T13:49:53.507Z,11.70
2019-03-26T13:52:21.453Z,11.60
2019-03-26T13:54:49.484Z,11.60
2019-03-26T13:57:17.576Z,11.70
2019-03-26T13:59:48.697Z,11.70
2019-03-26T14:02:15.316Z,11.60
2019-03-26T14:04:43.325Z,11.50
2019-03-26T14:07:11.396Z,11.50
2019-03-26T14:09:39.371Z,11.50
2019-03-26T14:12:07.382Z,11.50
2019-03-26T14:14:35.410Z,11.50
2019-03-26T14:17:05.580Z,11.50
2019-03-26T14:19:33.419Z,11.50
2019-03-26T14:22:01.525Z,11.50
2019-03-26T14:24:29.388Z,11.50
2019-03-26T14:26:57.385Z,11.50
2019-03-26T14:29:25.514Z,11.60
2019-03-26T14:31:53.466Z,11.60
2019-03-26T14:34:21.524Z,11.70
2019-03-26T14:36:49.696Z,11.80
2019-03-26T14:39:17.668Z,11.70
2019-03-26T14:41:45.857Z,11.80
2019-03-26T14:44:13.844Z,11.80
2019-03-26T14:46:41.720Z,11.70
2019-03-26T14:49:09.820Z,11.70
2019-03-26T14:51:37.672Z,11.70
2019-03-26T14:54:05.656Z,11.70
2019-03-26T14:56:33.788Z,11.70
2019-03-26T14:59:01.745Z,11.80
2019-03-26T15:01:29.725Z,11.80
2019-03-26T15:03:57.731Z,11.80
2019-03-26T15:06:25.820Z,11.80
2019-03-26T15:08:53.808Z,11.80
2019-03-26T15:11:21.791Z,11.90
2019-03-26T15:13:49.882Z,11.80
2019-03-26T15:16:17.947Z,11.90
2019-03-26T15:18:45.935Z,11.90
2019-03-26T15:21:13.917Z,11.80
2019-03-26T15:23:42.013Z,11.80
2019-03-26T15:26:10.071Z,11.80
2019-03-26T15:28:37.975Z,11.90
2019-03-26T15:31:06.188Z,11.90
2019-03-26T15:33:34.276Z,11.90
2019-03-26T15:36:02.540Z,11.80
2019-03-26T15:38:30.606Z,11.80
2019-03-26T15:40:58.628Z,11.90
2019-03-26T15:43:26.730Z,12.00
2019-03-26T15:45:54.803Z,12.10
2019-03-26T15:48:24.584Z,12.00
2019-03-26T15:50:52.569Z,12.00
2019-03-26T15:53:20.668Z,12.00
2019-03-26T15:55:48.699Z,11.90
2019-03-26T15:58:16.774Z,11.90
2019-03-26T16:00:44.869Z,11.90
2019-03-26T16:03:12.876Z,11.80
2019-03-26T16:05:40.859Z,11.80
2019-03-26T16:08:08.842Z,11.90
2019-03-26T16:10:36.933Z,11.90
2019-03-26T16:13:05.132Z,11.90
2019-03-26T16:15:43.562Z,11.90
2019-03-26T16:18:03.026Z,11.80
2019-03-26T16:20:31.046Z,11.80
2019-03-26T16:22:59.018Z,11.80
2019-03-26T16:25:26.993Z,11.80
2019-03-26T16:27:54.980Z,11.80
2019-03-26T16:30:22.946Z,11.80
2019-03-26T16:32:51.032Z,11.80
2019-03-26T16:35:18.988Z,11.70
2019-03-26T16:37:46.956Z,11.70
2019-03-26T16:40:15.060Z,11.60
2019-03-26T16:42:43.060Z,11.60
2019-03-26T16:45:11.030Z,11.60
2019-03-26T16:47:39.009Z,11.50
2019-03-26T16:50:07.360Z,11.50
2019-03-26T16:52:35.320Z,11.40
2019-03-26T16:55:03.663Z,11.40
2019-03-26T16:57:31.734Z,11.40
2019-03-26T16:59:59.621Z,11.30
2019-03-26T17:02:27.579Z,11.30
2019-03-26T17:04:55.573Z,11.30
2019-03-26T17:07:23.570Z,11.20
2019-03-26T17:09:51.549Z,11.20
2019-03-26T17:12:19.562Z,11.10
2019-03-26T17:14:47.648Z,11.00
2019-03-26T17:17:15.704Z,11.00
2019-03-26T17:19:43.772Z,11.00
2019-03-26T17:22:11.647Z,11.00
2019-03-26T17:24:39.734Z,11.00
2019-03-26T17:27:07.750Z,11.00
2019-03-26T17:29:35.722Z,11.00
2019-03-26T17:32:03.909Z,10.90
2019-03-26T17:34:31.897Z,11.00
2019-03-26T17:36:59.886Z,11.00
2019-03-26T17:39:27.956Z,10.90
2019-03-26T17:41:56.075Z,11.00
2019-03-26T17:44:24.028Z,10.90
2019-03-26T17:46:52.081Z,10.90
2019-03-26T17:49:20.068Z,10.80
2019-03-26T17:51:48.065Z,10.70
2019-03-26T17:54:16.036Z,10.60
2019-03-26T17:56:47.121Z,10.50
2019-03-26T17:59:13.830Z,10.40
2019-03-26T18:01:41.901Z,10.30
2019-03-26T18:04:09.893Z,10.20
2019-03-26T18:06:37.868Z,10.20
2019-03-26T18:09:06.818Z,10.10
2019-03-26T18:11:34.860Z,10.10
2019-03-26T18:14:03.110Z,10.00
2019-03-26T18:16:31.219Z,10.00
2019-03-26T18:18:59.185Z,9.90
2019-03-26T18:21:27.162Z,9.90
2019-03-26T18:23:55.144Z,9.90
2019-03-26T18:26:23.148Z,9.80
2019-03-26T18:28:51.309Z,9.80
2019-03-26T18:31:19.226Z,9.60
2019-03-26T18:33:47.223Z,9.60
2019-03-26T18:36:15.397Z,9.50
2019-03-26T18:38:43.337Z,9.40
2019-03-26T18:41:11.646Z,9.40
2019-03-26T18:43:39.637Z,9.30
2019-03-26T18:46:07.720Z,9.30
2019-03-26T18:48:35.829Z,9.20
2019-03-26T18:51:03.873Z,9.10
2019-03-26T18:53:31.936Z,9.00
2019-03-26T18:55:59.982Z,9.00
2019-03-26T18:58:27.952Z,8.90
2019-03-26T19:00:56.056Z,8.80
2019-03-26T19:03:24.192Z,8.70
2019-03-26T19:05:52.272Z,8.60
2019-03-26T19:08:20.345Z,8.50
2019-03-26T19:10:48.503Z,8.40
2019-03-26T19:13:19.936Z,8.30
2019-03-26T19:15:46.288Z,8.20
2019-03-26T19:18:14.249Z,8.20
2019-03-26T19:20:42.252Z,8.10
2019-03-26T19:23:10.246Z,8.10
2019-03-26T19:25:38.328Z,8.00
2019-03-26T19:28:06.408Z,8.00
2019-03-26T19:30:34.414Z,8.00
2019-03-26T19:33:02.387Z,8.00
2019-03-26T19:35:30.367Z,8.20
2019-03-26T19:37:58.363Z,8.20
2019-03-26T19:40:26.432Z,8.20
2019-03-26T19:42:54.488Z,8.20
2019-03-26T19:45:22.443Z,8.20
2019-03-26T19:47:50.532Z,8.20
2019-03-26T19:50:18.755Z,8.20
2019-03-26T19:52:46.908Z,8.20
2019-03-26T19:55:14.977Z,8.20
2019-03-26T19:57:42.974Z,8.20
2019-03-26T20:00:12.528Z,8.20
2019-03-26T20:02:40.498Z,8.10
2019-03-26T20:05:08.664Z,8.10
2019-03-26T20:07:36.652Z,8.10
2019-03-26T20:10:05.742Z,8.10
2019-03-26T20:12:33.553Z,8.10
2019-03-26T20:15:01.541Z,8.10
2019-03-26T20:17:29.508Z,8.00
2019-03-26T20:19:57.455Z,8.00
2019-03-26T20:22:25.426Z,8.00
2019-03-26T20:24:53.421Z,8.00
2019-03-26T20:27:21.437Z,7.90
2019-03-26T20:29:49.435Z,7.90
2019-03-26T20:32:17.609Z,7.90
2019-03-26T20:34:45.558Z,7.90
2019-03-26T20:37:13.657Z,7.90
2019-03-26T20:39:41.620Z,7.80
2019-03-26T20:42:09.624Z,7.80
2019-03-26T20:44:37.609Z,7.70
2019-03-26T20:47:05.569Z,7.70
2019-03-26T20:49:33.673Z,7.60
2019-03-26T20:52:01.640Z,7.60
2019-03-26T20:54:29.723Z,7.50
2019-03-26T20:56:58.115Z,7.40
2019-03-26T20:59:26.474Z,7.40
2019-03-26T21:01:54.597Z,7.40
2019-03-26T21:04:22.550Z,7.40
2019-03-26T21:06:50.661Z,7.30
2019-03-26T21:09:18.853Z,7.20
2019-03-26T21:11:46.872Z,7.20
2019-03-26T21:14:15.193Z,7.10
2019-03-26T21:16:43.206Z,7.10
2019-03-26T21:19:11.204Z,7.10
2019-03-26T21:21:39.184Z,7.10
2019-03-26T21:24:08.726Z,7.10
2019-03-26T21:26:36.698Z,7.10
2019-03-26T21:29:04.680Z,7.00
2019-03-26T21:31:32.669Z,7.00
2019-03-26T21:34:00.804Z,6.90
2019-03-26T21:36:29.033Z,6.90
2019-03-26T21:38:57.029Z,6.80
2019-03-26T21:41:25.104Z,6.80
2019-03-26T21:44:03.587Z,6.80
2019-03-26T21:46:23.375Z,6.80
2019-03-26T21:48:52.038Z,6.80
2019-03-26T21:51:20.065Z,6.70
2019-03-26T21:53:48.108Z,6.70
2019-03-26T21:56:16.184Z,6.60
2019-03-26T21:58:44.148Z,6.60
2019-03-26T22:01:12.240Z,6.60
2019-03-26T22:03:40.204Z,6.60
2019-03-26T22:06:08.299Z,6.60
2019-03-26T22:08:36.277Z,6.60
2019-03-26T22:11:04.504Z,6.60
2019-03-26T22:13:32.589Z,6.60
2019-03-26T22:16:00.593Z,6.60
2019-03-26T22:18:28.559Z,6.50
2019-03-26T22:20:56.558Z,6.50
2019-03-26T22:23:24.541Z,6.40
2019-03-26T22:25:52.789Z,6.40
2019-03-26T22:28:20.868Z,6.40
2019-03-26T22:30:48.928Z,6.30
2019-03-26T22:33:16.904Z,6.30
2019-03-26T22:35:44.853Z,6.20
2019-03-26T22:38:12.795Z,6.20
2019-03-26T22:40:40.801Z,6.20
2019-03-26T22:43:08.772Z,6.20
2019-03-26T22:45:36.748Z,6.10
2019-03-26T22:48:04.728Z,6.10
2019-03-26T22:50:32.808Z,6.00
2019-03-26T22:53:00.814Z,6.00
2019-03-26T22:55:28.783Z,6.00
2019-03-26T22:57:56.744Z,6.00
2019-03-26T23:00:25.105Z,6.00
2019-03-26T23:02:53.170Z,6.00
2019-03-26T23:05:21.226Z,6.00
2019-03-26T23:07:49.439Z,5.90
2019-03-26T23:10:18.360Z,5.90
2019-03-26T23:12:46.425Z,5.90
2019-03-26T23:15:19.454Z,5.90
2019-03-26T23:17:47.440Z,6.00
2019-03-26T23:20:15.422Z,6.00
2019-03-26T23:22:43.484Z,6.10
2019-03-26T23:25:11.716Z,6.20
2019-03-26T23:27:39.676Z,6.30
2019-03-26T23:30:07.880Z,6.40
2019-03-26T23:32:35.840Z,6.50
2019-03-26T23:35:04.444Z,6.60
2019-03-26T23:37:32.520Z,6.60
2019-03-26T23:40:00.520Z,6.70
2019-03-26T23:42:28.484Z,6.70
2019-03-26T23:44:58.572Z,6.80
2019-03-26T23:47:26.340Z,6.80
2019-03-26T23:49:54.320Z,6.90
2019-03-26T23:52:22.412Z,6.90
2019-03-26T23:54:51.120Z,6.90
2019-03-26T23:57:19.081Z,6.80
2019-03-26T23:59:47.116Z,6.80
